Guo Mao 1 — 5VBT9 — position and weather

sailwx.info

Track history (hours):
 
Tides and Currents Weather Stations Pressure Air Temp Water Temp Dewpoint Dewpoint Depression Visibility Wind Speed Wind Dir Waves Ship Positions

Guo Mao 1

Last reported at 2017-Nov-05 05:12 UTC. Time now 2017-Nov-21 21:15 UTC.
Position N 37°28' E 119°55'.
Warning: this ship's position is 16 days out of date.

Length 99 m; draft 6.2 m.

Type: Cargo ship. MMSI: 671307000.

Date/timePositionNaut miles runAvg speedWind from/ knotsBaromVisibWave heightAir tempDewpointWater temp
2017-Nov-05 05:12N 37°28' E 119°55'2 9.0
2017-Nov-05 04:59N 37°26' E 119°56'2 3.6
2017-Nov-05 04:30N 37°25' E 119°57'0 0.0
2017-Nov-05 03:57N 37°25' E 119°57'0 0.0
2017-Nov-05 03:30N 37°25' E 119°57'0 0.0
2017-Nov-05 03:00N 37°25' E 119°57'0 0.0
2017-Nov-05 02:30N 37°25' E 119°57'0 0.0
2017-Nov-05 02:00N 37°25' E 119°57'0 0.0
2017-Nov-05 01:27N 37°25' E 119°57'0 0.0
2017-Nov-05 00:57N 37°25' E 119°57'0 0.0
2017-Nov-05 00:30N 37°25' E 119°57'0 0.0
2017-Nov-05 00:00N 37°25' E 119°57'0 0.0
2017-Nov-04 23:30N 37°25' E 119°57'0 0.0
2017-Nov-04 23:00N 37°25' E 119°57'0 0.0
2017-Nov-04 22:30N 37°25' E 119°57'0 0.0
2017-Nov-04 21:57N 37°25' E 119°57'0 0.0
2017-Nov-04 21:30N 37°25' E 119°57'0 0.0
2017-Nov-04 21:00N 37°25' E 119°57'0 0.0
2017-Nov-04 20:30N 37°25' E 119°57'0 0.0
2017-Nov-04 20:00N 37°25' E 119°57'0 0.0
2017-Nov-04 19:30N 37°25' E 119°57'0 0.0
2017-Nov-04 19:00N 37°25' E 119°57'0 0.0
2017-Nov-04 18:30N 37°25' E 119°57'0 0.0
2017-Nov-04 18:00N 37°25' E 119°57'0 0.0
2017-Nov-04 17:30N 37°25' E 119°57'0 0.0
2017-Nov-04 17:00N 37°25' E 119°57'0 0.0
2017-Nov-04 16:30N 37°25' E 119°57'0 0.0
2017-Nov-04 16:00N 37°25' E 119°57'0 0.0
2017-Nov-04 15:30N 37°25' E 119°57'0 0.0
2017-Nov-04 15:00N 37°25' E 119°57'0 0.0
2017-Nov-04 14:30N 37°25' E 119°57'0 0.0
2017-Nov-04 14:00N 37°25' E 119°57'0 0.0
2017-Nov-04 13:30N 37°25' E 119°57'0 0.0
2017-Nov-04 13:00N 37°25' E 119°57'0 0.0
2017-Nov-04 12:18N 37°25' E 119°57'0 0.0
2017-Nov-04 12:00N 37°25' E 119°57'0 0.0
2017-Nov-04 11:30N 37°25' E 119°57'0 0.0
2017-Nov-04 11:00N 37°25' E 119°57'0 0.0
2017-Nov-04 10:30N 37°25' E 119°57'0 0.0
2017-Nov-04 10:00N 37°25' E 119°57'0 0.0
2017-Nov-04 09:30N 37°25' E 119°57'0 0.0
2017-Nov-04 08:57N 37°25' E 119°57'0 0.0
2017-Nov-04 08:30N 37°25' E 119°57'0 0.0
2017-Nov-04 08:00N 37°25' E 119°57'0 0.0
2017-Nov-04 07:30N 37°25' E 119°57'0 0.0
2017-Nov-04 06:57N 37°25' E 119°57'0 0.0
2017-Nov-04 06:30N 37°25' E 119°57'0 0.0
2017-Nov-04 06:00N 37°25' E 119°57'0 0.0
2017-Nov-04 05:30N 37°25' E 119°57'0 0.0
2017-Nov-04 05:00N 37°25' E 119°57'0 0.0
2017-Nov-04 04:30N 37°25' E 119°57'0 0.0
2017-Nov-04 04:00N 37°25' E 119°57'0 0.0
2017-Nov-04 03:30N 37°25' E 119°57'0 0.0
2017-Nov-04 03:00N 37°25' E 119°57'0 0.0
2017-Nov-04 02:27N 37°25' E 119°57'0 0.0
2017-Nov-04 02:00N 37°25' E 119°57'0 0.0
2017-Nov-04 01:30N 37°25' E 119°57'0 0.0
2017-Nov-04 01:00N 37°25' E 119°57'0 0.6
2017-Nov-04 00:31N 37°25' E 119°57'2 4.2
2017-Nov-04 00:00N 37°27' E 119°56'4 7.1
2017-Nov-03 23:28N 37°30' E 119°53'2 0.1
2017-Nov-03 01:15N 37°31' E 119°51'0 0.0
2017-Nov-03 00:57N 37°31' E 119°51'  
Track history (hours):
 
Tides and Currents Weather Stations Pressure Air Temp Water Temp Dewpoint Dewpoint Depression Visibility Wind Speed Wind Dir Waves Ship Positions

Guo Mao 1

Last reported at 2017-Nov-05 05:12 UTC. Time now 2017-Nov-21 21:15 UTC.
Position N 37°28' E 119°55'.
Warning: this ship's position is 16 days out of date.

Length 99 m; draft 6.2 m.

Type: Cargo ship. MMSI: 671307000.

Date/timePositionNaut miles runAvg speedWind from/ knotsBaromVisibWave heightAir tempDewpointWater temp
2017-Nov-05 05:12N 37°28' E 119°55'2 9.0
2017-Nov-05 04:59N 37°26' E 119°56'2 3.6
2017-Nov-05 04:30N 37°25' E 119°57'0 0.0
2017-Nov-05 03:57N 37°25' E 119°57'0 0.0
2017-Nov-05 03:30N 37°25' E 119°57'0 0.0
2017-Nov-05 03:00N 37°25' E 119°57'0 0.0
2017-Nov-05 02:30N 37°25' E 119°57'0 0.0
2017-Nov-05 02:00N 37°25' E 119°57'0 0.0
2017-Nov-05 01:27N 37°25' E 119°57'0 0.0
2017-Nov-05 00:57N 37°25' E 119°57'0 0.0
2017-Nov-05 00:30N 37°25' E 119°57'0 0.0
2017-Nov-05 00:00N 37°25' E 119°57'0 0.0
2017-Nov-04 23:30N 37°25' E 119°57'0 0.0
2017-Nov-04 23:00N 37°25' E 119°57'0 0.0
2017-Nov-04 22:30N 37°25' E 119°57'0 0.0
2017-Nov-04 21:57N 37°25' E 119°57'0 0.0
2017-Nov-04 21:30N 37°25' E 119°57'0 0.0
2017-Nov-04 21:00N 37°25' E 119°57'0 0.0
2017-Nov-04 20:30N 37°25' E 119°57'0 0.0
2017-Nov-04 20:00N 37°25' E 119°57'0 0.0
2017-Nov-04 19:30N 37°25' E 119°57'0 0.0
2017-Nov-04 19:00N 37°25' E 119°57'0 0.0
2017-Nov-04 18:30N 37°25' E 119°57'0 0.0
2017-Nov-04 18:00N 37°25' E 119°57'0 0.0
2017-Nov-04 17:30N 37°25' E 119°57'0 0.0
2017-Nov-04 17:00N 37°25' E 119°57'0 0.0
2017-Nov-04 16:30N 37°25' E 119°57'0 0.0
2017-Nov-04 16:00N 37°25' E 119°57'0 0.0
2017-Nov-04 15:30N 37°25' E 119°57'0 0.0
2017-Nov-04 15:00N 37°25' E 119°57'0 0.0
2017-Nov-04 14:30N 37°25' E 119°57'0 0.0
2017-Nov-04 14:00N 37°25' E 119°57'0 0.0
2017-Nov-04 13:30N 37°25' E 119°57'0 0.0
2017-Nov-04 13:00N 37°25' E 119°57'0 0.0
2017-Nov-04 12:18N 37°25' E 119°57'0 0.0
2017-Nov-04 12:00N 37°25' E 119°57'0 0.0
2017-Nov-04 11:30N 37°25' E 119°57'0 0.0
2017-Nov-04 11:00N 37°25' E 119°57'0 0.0
2017-Nov-04 10:30N 37°25' E 119°57'0 0.0
2017-Nov-04 10:00N 37°25' E 119°57'0 0.0
2017-Nov-04 09:30N 37°25' E 119°57'0 0.0
2017-Nov-04 08:57N 37°25' E 119°57'0 0.0
2017-Nov-04 08:30N 37°25' E 119°57'0 0.0
2017-Nov-04 08:00N 37°25' E 119°57'0 0.0
2017-Nov-04 07:30N 37°25' E 119°57'0 0.0
2017-Nov-04 06:57N 37°25' E 119°57'0 0.0
2017-Nov-04 06:30N 37°25' E 119°57'0 0.0
2017-Nov-04 06:00N 37°25' E 119°57'0 0.0
2017-Nov-04 05:30N 37°25' E 119°57'0 0.0
2017-Nov-04 05:00N 37°25' E 119°57'0 0.0
2017-Nov-04 04:30N 37°25' E 119°57'0 0.0
2017-Nov-04 04:00N 37°25' E 119°57'0 0.0
2017-Nov-04 03:30N 37°25' E 119°57'0 0.0
2017-Nov-04 03:00N 37°25' E 119°57'0 0.0
2017-Nov-04 02:27N 37°25' E 119°57'0 0.0
2017-Nov-04 02:00N 37°25' E 119°57'0 0.0
2017-Nov-04 01:30N 37°25' E 119°57'0 0.0
2017-Nov-04 01:00N 37°25' E 119°57'0 0.6
2017-Nov-04 00:31N 37°25' E 119°57'2 4.2
2017-Nov-04 00:00N 37°27' E 119°56'4 7.1
2017-Nov-03 23:28N 37°30' E 119°53'2 0.1
2017-Nov-03 01:15N 37°31' E 119°51'0 0.0
2017-Nov-03 00:57N 37°31' E 119°51'  

Dump ship's entire track history